sensor_id;sensor_type;location;lat;lon;timestamp;P1;durP1;ratioP1;P2;durP2;ratioP2
8819;SDS011;4446;50.876;4.736;2023-10-13T00:01:47;15.95;;;10.02;;
8819;SDS011;4446;50.876;4.736;2023-10-13T00:04:17;17.08;;;9.35;;
8819;SDS011;4446;50.876;4.736;2023-10-13T00:06:50;14.10;;;9.23;;
8819;SDS011;4446;50.876;4.736;2023-10-13T00:09:18;22.35;;;10.25;;
8819;SDS011;4446;50.876;4.736;2023-10-13T00:11:52;18.48;;;9.75;;
8819;SDS011;4446;50.876;4.736;2023-10-13T00:14:19;15.20;;;9.20;;
8819;SDS011;4446;50.876;4.736;2023-10-13T00:16:47;14.40;;;8.43;;
8819;SDS011;4446;50.876;4.736;2023-10-13T00:19:28;15.30;;;9.65;;
8819;SDS011;4446;50.876;4.736;2023-10-13T00:22:02;16.02;;;8.73;;
8819;SDS011;4446;50.876;4.736;2023-10-13T00:24:36;15.18;;;8.48;;
8819;SDS011;4446;50.876;4.736;2023-10-13T00:27:10;18.23;;;9.07;;
8819;SDS011;4446;50.876;4.736;2023-10-13T00:29:54;14.77;;;9.27;;
8819;SDS011;4446;50.876;4.736;2023-10-13T00:32:35;13.60;;;9.25;;
8819;SDS011;4446;50.876;4.736;2023-10-13T00:35:05;15.88;;;9.07;;
8819;SDS011;4446;50.876;4.736;2023-10-13T00:37:40;16.35;;;10.07;;
8819;SDS011;4446;50.876;4.736;2023-10-13T00:40:09;14.20;;;8.95;;
8819;SDS011;4446;50.876;4.736;2023-10-13T00:43:01;13.02;;;8.30;;
8819;SDS011;4446;50.876;4.736;2023-10-13T00:45:50;12.43;;;8.10;;
8819;SDS011;4446;50.876;4.736;2023-10-13T00:48:20;16.02;;;8.93;;
8819;SDS011;4446;50.876;4.736;2023-10-13T00:50:49;15.73;;;9.10;;
8819;SDS011;4446;50.876;4.736;2023-10-13T00:53:16;15.82;;;9.02;;
8819;SDS011;4446;50.876;4.736;2023-10-13T00:55:46;12.02;;;8.32;;
8819;SDS011;4446;50.876;4.736;2023-10-13T00:58:13;11.40;;;7.78;;
8819;SDS011;4446;50.876;4.736;2023-10-13T01:00:47;14.48;;;8.93;;
8819;SDS011;4446;50.876;4.736;2023-10-13T01:03:14;15.02;;;9.05;;
8819;SDS011;4446;50.876;4.736;2023-10-13T01:05:41;15.05;;;9.02;;
8819;SDS011;4446;50.876;4.736;2023-10-13T01:08:09;14.00;;;8.13;;
8819;SDS011;4446;50.876;4.736;2023-10-13T01:10:37;13.95;;;8.88;;
8819;SDS011;4446;50.876;4.736;2023-10-13T01:13:06;11.85;;;7.90;;
8819;SDS011;4446;50.876;4.736;2023-10-13T01:15:35;14.35;;;8.55;;
8819;SDS011;4446;50.876;4.736;2023-10-13T01:18:07;14.45;;;8.82;;
8819;SDS011;4446;50.876;4.736;2023-10-13T01:20:36;16.38;;;8.70;;
8819;SDS011;4446;50.876;4.736;2023-10-13T01:23:11;9.75;;;7.78;;
8819;SDS011;4446;50.876;4.736;2023-10-13T01:25:43;14.90;;;8.55;;
8819;SDS011;4446;50.876;4.736;2023-10-13T01:28:10;13.57;;;8.63;;
8819;SDS011;4446;50.876;4.736;2023-10-13T01:30:41;11.95;;;8.18;;
8819;SDS011;4446;50.876;4.736;2023-10-13T01:33:07;15.75;;;8.48;;
8819;SDS011;4446;50.876;4.736;2023-10-13T01:35:36;11.32;;;7.32;;
8819;SDS011;4446;50.876;4.736;2023-10-13T01:38:14;14.07;;;8.30;;
8819;SDS011;4446;50.876;4.736;2023-10-13T01:40:41;12.15;;;8.35;;
8819;SDS011;4446;50.876;4.736;2023-10-13T01:43:08;13.23;;;9.15;;
8819;SDS011;4446;50.876;4.736;2023-10-13T01:45:37;14.25;;;8.02;;
8819;SDS011;4446;50.876;4.736;2023-10-13T01:48:14;10.45;;;7.45;;
8819;SDS011;4446;50.876;4.736;2023-10-13T01:50:43;13.25;;;8.18;;
8819;SDS011;4446;50.876;4.736;2023-10-13T01:53:15;11.82;;;8.32;;
8819;SDS011;4446;50.876;4.736;2023-10-13T01:55:43;13.88;;;8.38;;
8819;SDS011;4446;50.876;4.736;2023-10-13T01:58:09;15.63;;;8.07;;
8819;SDS011;4446;50.876;4.736;2023-10-13T02:00:40;13.57;;;7.90;;
8819;SDS011;4446;50.876;4.736;2023-10-13T02:03:07;12.88;;;7.95;;
8819;SDS011;4446;50.876;4.736;2023-10-13T02:05:40;12.85;;;8.05;;
8819;SDS011;4446;50.876;4.736;2023-10-13T02:08:12;14.88;;;7.97;;
8819;SDS011;4446;50.876;4.736;2023-10-13T02:10:48;13.35;;;8.15;;
8819;SDS011;4446;50.876;4.736;2023-10-13T02:13:14;14.40;;;8.48;;
8819;SDS011;4446;50.876;4.736;2023-10-13T02:15:43;14.40;;;8.77;;
8819;SDS011;4446;50.876;4.736;2023-10-13T02:18:10;12.25;;;8.32;;
8819;SDS011;4446;50.876;4.736;2023-10-13T02:20:45;12.82;;;7.97;;
8819;SDS011;4446;50.876;4.736;2023-10-13T02:23:20;14.68;;;8.65;;
8819;SDS011;4446;50.876;4.736;2023-10-13T02:25:50;16.98;;;8.13;;
8819;SDS011;4446;50.876;4.736;2023-10-13T02:28:25;15.23;;;8.27;;
8819;SDS011;4446;50.876;4.736;2023-10-13T02:30:54;12.73;;;8.43;;
8819;SDS011;4446;50.876;4.736;2023-10-13T02:33:22;12.60;;;7.78;;
8819;SDS011;4446;50.876;4.736;2023-10-13T02:35:55;16.45;;;8.10;;
8819;SDS011;4446;50.876;4.736;2023-10-13T02:38:23;14.10;;;8.38;;
8819;SDS011;4446;50.876;4.736;2023-10-13T02:40:59;12.90;;;7.40;;
8819;SDS011;4446;50.876;4.736;2023-10-13T02:43:31;11.00;;;8.00;;
8819;SDS011;4446;50.876;4.736;2023-10-13T02:46:00;11.27;;;7.70;;
8819;SDS011;4446;50.876;4.736;2023-10-13T02:48:27;12.02;;;8.18;;
8819;SDS011;4446;50.876;4.736;2023-10-13T02:51:05;9.25;;;6.68;;
8819;SDS011;4446;50.876;4.736;2023-10-13T02:53:42;12.15;;;7.40;;
8819;SDS011;4446;50.876;4.736;2023-10-13T02:56:12;12.55;;;6.78;;
8819;SDS011;4446;50.876;4.736;2023-10-13T02:58:39;13.38;;;6.82;;
8819;SDS011;4446;50.876;4.736;2023-10-13T03:01:10;12.85;;;7.70;;
8819;SDS011;4446;50.876;4.736;2023-10-13T03:03:45;11.32;;;6.95;;
8819;SDS011;4446;50.876;4.736;2023-10-13T03:06:15;11.23;;;7.07;;
8819;SDS011;4446;50.876;4.736;2023-10-13T03:08:44;14.95;;;8.07;;
8819;SDS011;4446;50.876;4.736;2023-10-13T03:11:11;11.35;;;7.13;;
8819;SDS011;4446;50.876;4.736;2023-10-13T03:13:39;11.85;;;7.03;;
8819;SDS011;4446;50.876;4.736;2023-10-13T03:16:11;16.40;;;7.88;;
8819;SDS011;4446;50.876;4.736;2023-10-13T03:18:40;11.90;;;7.13;;
8819;SDS011;4446;50.876;4.736;2023-10-13T03:21:16;14.77;;;8.63;;
8819;SDS011;4446;50.876;4.736;2023-10-13T03:23:54;10.32;;;7.50;;
8819;SDS011;4446;50.876;4.736;2023-10-13T03:26:23;12.68;;;6.80;;
8819;SDS011;4446;50.876;4.736;2023-10-13T03:28:49;13.70;;;7.38;;
8819;SDS011;4446;50.876;4.736;2023-10-13T03:31:19;14.88;;;7.05;;
8819;SDS011;4446;50.876;4.736;2023-10-13T03:33:52;14.57;;;6.65;;
8819;SDS011;4446;50.876;4.736;2023-10-13T03:36:24;10.75;;;6.57;;
8819;SDS011;4446;50.876;4.736;2023-10-13T03:39:23;13.68;;;7.00;;
8819;SDS011;4446;50.876;4.736;2023-10-13T03:41:55;13.00;;;6.93;;
8819;SDS011;4446;50.876;4.736;2023-10-13T03:44:24;13.52;;;7.18;;
8819;SDS011;4446;50.876;4.736;2023-10-13T03:46:55;10.98;;;6.75;;
8819;SDS011;4446;50.876;4.736;2023-10-13T03:49:33;11.00;;;6.85;;
8819;SDS011;4446;50.876;4.736;2023-10-13T03:52:03;10.35;;;6.10;;
8819;SDS011;4446;50.876;4.736;2023-10-13T03:54:32;10.05;;;6.10;;
8819;SDS011;4446;50.876;4.736;2023-10-13T03:57:00;9.82;;;6.90;;
8819;SDS011;4446;50.876;4.736;2023-10-13T03:59:36;11.73;;;6.50;;
8819;SDS011;4446;50.876;4.736;2023-10-13T04:02:04;8.80;;;5.50;;
8819;SDS011;4446;50.876;4.736;2023-10-13T04:04:37;8.45;;;5.68;;
8819;SDS011;4446;50.876;4.736;2023-10-13T04:07:13;12.13;;;6.15;;
8819;SDS011;4446;50.876;4.736;2023-10-13T04:10:07;9.63;;;6.03;;
8819;SDS011;4446;50.876;4.736;2023-10-13T04:13:04;11.32;;;5.93;;
8819;SDS011;4446;50.876;4.736;2023-10-13T04:15:48;8.30;;;5.25;;
8819;SDS011;4446;50.876;4.736;2023-10-13T04:18:40;10.05;;;5.18;;
8819;SDS011;4446;50.876;4.736;2023-10-13T04:21:29;7.63;;;5.10;;
8819;SDS011;4446;50.876;4.736;2023-10-13T04:24:05;8.82;;;5.32;;
8819;SDS011;4446;50.876;4.736;2023-10-13T04:26:50;9.43;;;5.15;;
8819;SDS011;4446;50.876;4.736;2023-10-13T04:29:47;8.13;;;5.10;;
8819;SDS011;4446;50.876;4.736;2023-10-13T04:32:35;8.35;;;5.68;;
8819;SDS011;4446;50.876;4.736;2023-10-13T04:35:04;9.98;;;5.10;;
8819;SDS011;4446;50.876;4.736;2023-10-13T04:37:42;9.95;;;5.00;;
8819;SDS011;4446;50.876;4.736;2023-10-13T04:40:17;9.90;;;5.35;;
8819;SDS011;4446;50.876;4.736;2023-10-13T04:42:51;9.30;;;4.55;;
8819;SDS011;4446;50.876;4.736;2023-10-13T04:45:19;8.73;;;4.72;;
8819;SDS011;4446;50.876;4.736;2023-10-13T04:48:14;13.65;;;6.03;;
8819;SDS011;4446;50.876;4.736;2023-10-13T04:50:58;9.27;;;4.97;;
8819;SDS011;4446;50.876;4.736;2023-10-13T04:53:40;6.50;;;4.47;;
8819;SDS011;4446;50.876;4.736;2023-10-13T04:56:21;11.77;;;4.20;;
8819;SDS011;4446;50.876;4.736;2023-10-13T04:59:06;5.65;;;4.15;;
8819;SDS011;4446;50.876;4.736;2023-10-13T05:02:00;8.30;;;4.57;;
8819;SDS011;4446;50.876;4.736;2023-10-13T05:04:41;6.97;;;4.28;;
8819;SDS011;4446;50.876;4.736;2023-10-13T05:07:22;8.40;;;4.65;;
8819;SDS011;4446;50.876;4.736;2023-10-13T05:10:06;12.25;;;4.47;;
8819;SDS011;4446;50.876;4.736;2023-10-13T05:12:51;6.55;;;4.40;;
8819;SDS011;4446;50.876;4.736;2023-10-13T05:15:43;11.40;;;4.40;;
8819;SDS011;4446;50.876;4.736;2023-10-13T05:18:28;7.65;;;4.60;;
8819;SDS011;4446;50.876;4.736;2023-10-13T05:21:13;10.48;;;5.30;;
8819;SDS011;4446;50.876;4.736;2023-10-13T05:23:57;9.10;;;4.57;;
8819;SDS011;4446;50.876;4.736;2023-10-13T05:26:41;6.45;;;4.65;;
8819;SDS011;4446;50.876;4.736;2023-10-13T05:29:26;7.57;;;4.15;;
8819;SDS011;4446;50.876;4.736;2023-10-13T05:32:11;8.75;;;4.47;;
8819;SDS011;4446;50.876;4.736;2023-10-13T05:34:56;7.82;;;4.35;;
8819;SDS011;4446;50.876;4.736;2023-10-13T05:37:40;8.68;;;4.95;;
8819;SDS011;4446;50.876;4.736;2023-10-13T05:40:24;7.50;;;4.13;;
8819;SDS011;4446;50.876;4.736;2023-10-13T05:43:08;7.13;;;5.20;;
8819;SDS011;4446;50.876;4.736;2023-10-13T05:45:53;10.35;;;4.50;;
8819;SDS011;4446;50.876;4.736;2023-10-13T05:48:41;13.07;;;5.10;;
8819;SDS011;4446;50.876;4.736;2023-10-13T05:51:30;11.82;;;4.88;;
8819;SDS011;4446;50.876;4.736;2023-10-13T05:54:09;10.18;;;5.03;;
8819;SDS011;4446;50.876;4.736;2023-10-13T05:56:54;6.60;;;4.20;;
8819;SDS011;4446;50.876;4.736;2023-10-13T05:59:38;8.85;;;4.45;;
8819;SDS011;4446;50.876;4.736;2023-10-13T06:02:23;8.90;;;4.05;;
8819;SDS011;4446;50.876;4.736;2023-10-13T06:05:10;11.70;;;4.30;;
8819;SDS011;4446;50.876;4.736;2023-10-13T06:07:56;7.72;;;4.88;;
8819;SDS011;4446;50.876;4.736;2023-10-13T06:10:41;9.57;;;3.85;;
8819;SDS011;4446;50.876;4.736;2023-10-13T06:13:26;10.65;;;4.75;;
8819;SDS011;4446;50.876;4.736;2023-10-13T06:16:11;10.88;;;4.55;;
8819;SDS011;4446;50.876;4.736;2023-10-13T06:18:56;8.52;;;4.13;;
8819;SDS011;4446;50.876;4.736;2023-10-13T06:21:42;8.98;;;4.95;;
8819;SDS011;4446;50.876;4.736;2023-10-13T06:24:27;12.05;;;4.97;;
8819;SDS011;4446;50.876;4.736;2023-10-13T06:27:11;8.70;;;4.53;;
8819;SDS011;4446;50.876;4.736;2023-10-13T06:29:56;13.27;;;4.57;;
8819;SDS011;4446;50.876;4.736;2023-10-13T06:32:23;8.00;;;4.22;;
8819;SDS011;4446;50.876;4.736;2023-10-13T06:34:51;11.20;;;5.05;;
8819;SDS011;4446;50.876;4.736;2023-10-13T06:37:24;10.85;;;6.65;;
8819;SDS011;4446;50.876;4.736;2023-10-13T06:39:52;10.32;;;5.40;;
8819;SDS011;4446;50.876;4.736;2023-10-13T06:42:21;10.52;;;5.97;;
8819;SDS011;4446;50.876;4.736;2023-10-13T06:44:52;8.55;;;5.97;;
8819;SDS011;4446;50.876;4.736;2023-10-13T06:47:20;7.43;;;4.90;;
8819;SDS011;4446;50.876;4.736;2023-10-13T06:49:47;11.32;;;6.32;;
8819;SDS011;4446;50.876;4.736;2023-10-13T06:52:17;8.48;;;5.20;;
8819;SDS011;4446;50.876;4.736;2023-10-13T06:54:46;8.90;;;5.53;;
8819;SDS011;4446;50.876;4.736;2023-10-13T06:57:13;10.07;;;6.20;;
8819;SDS011;4446;50.876;4.736;2023-10-13T06:59:40;7.55;;;5.53;;
8819;SDS011;4446;50.876;4.736;2023-10-13T07:02:08;11.88;;;6.15;;
8819;SDS011;4446;50.876;4.736;2023-10-13T07:04:45;11.65;;;6.00;;
8819;SDS011;4446;50.876;4.736;2023-10-13T07:07:12;12.02;;;5.78;;
8819;SDS011;4446;50.876;4.736;2023-10-13T07:09:41;9.48;;;6.22;;
8819;SDS011;4446;50.876;4.736;2023-10-13T07:12:16;10.88;;;5.95;;
8819;SDS011;4446;50.876;4.736;2023-10-13T07:14:47;10.45;;;6.07;;
8819;SDS011;4446;50.876;4.736;2023-10-13T07:17:36;13.43;;;5.85;;
8819;SDS011;4446;50.876;4.736;2023-10-13T07:20:05;9.88;;;5.47;;
8819;SDS011;4446;50.876;4.736;2023-10-13T07:22:40;12.15;;;5.75;;
8819;SDS011;4446;50.876;4.736;2023-10-13T07:25:20;9.88;;;5.70;;
8819;SDS011;4446;50.876;4.736;2023-10-13T07:27:51;8.60;;;5.60;;
8819;SDS011;4446;50.876;4.736;2023-10-13T07:30:19;9.50;;;5.78;;
8819;SDS011;4446;50.876;4.736;2023-10-13T07:32:51;6.95;;;5.70;;
8819;SDS011;4446;50.876;4.736;2023-10-13T07:35:22;8.40;;;5.07;;
8819;SDS011;4446;50.876;4.736;2023-10-13T07:37:51;11.40;;;5.88;;
8819;SDS011;4446;50.876;4.736;2023-10-13T07:40:18;13.25;;;5.70;;
8819;SDS011;4446;50.876;4.736;2023-10-13T07:43:06;9.25;;;5.25;;
8819;SDS011;4446;50.876;4.736;2023-10-13T07:45:36;9.95;;;5.15;;
8819;SDS011;4446;50.876;4.736;2023-10-13T07:48:03;7.28;;;5.32;;
8819;SDS011;4446;50.876;4.736;2023-10-13T07:50:37;7.95;;;5.38;;
8819;SDS011;4446;50.876;4.736;2023-10-13T07:53:04;8.90;;;5.00;;
8819;SDS011;4446;50.876;4.736;2023-10-13T07:55:44;11.45;;;5.28;;
8819;SDS011;4446;50.876;4.736;2023-10-13T07:58:13;8.05;;;5.38;;
8819;SDS011;4446;50.876;4.736;2023-10-13T08:00:40;8.95;;;5.18;;
8819;SDS011;4446;50.876;4.736;2023-10-13T08:03:19;8.82;;;5.00;;
8819;SDS011;4446;50.876;4.736;2023-10-13T08:06:08;7.97;;;5.00;;
8819;SDS011;4446;50.876;4.736;2023-10-13T08:08:45;11.02;;;5.65;;
8819;SDS011;4446;50.876;4.736;2023-10-13T08:11:15;6.32;;;4.97;;
8819;SDS011;4446;50.876;4.736;2023-10-13T08:13:57;9.63;;;4.78;;
8819;SDS011;4446;50.876;4.736;2023-10-13T08:16:25;6.45;;;4.95;;
8819;SDS011;4446;50.876;4.736;2023-10-13T08:19:11;6.20;;;4.82;;
8819;SDS011;4446;50.876;4.736;2023-10-13T08:21:40;10.48;;;4.57;;
8819;SDS011;4446;50.876;4.736;2023-10-13T08:24:14;8.93;;;4.90;;
8819;SDS011;4446;50.876;4.736;2023-10-13T08:26:50;7.00;;;4.15;;
8819;SDS011;4446;50.876;4.736;2023-10-13T08:29:24;12.65;;;5.45;;
8819;SDS011;4446;50.876;4.736;2023-10-13T08:32:08;8.02;;;4.70;;
8819;SDS011;4446;50.876;4.736;2023-10-13T08:34:48;7.07;;;4.30;;
8819;SDS011;4446;50.876;4.736;2023-10-13T08:37:34;7.45;;;4.72;;
8819;SDS011;4446;50.876;4.736;2023-10-13T08:40:12;9.23;;;5.13;;
8819;SDS011;4446;50.876;4.736;2023-10-13T08:43:12;10.32;;;5.28;;
8819;SDS011;4446;50.876;4.736;2023-10-13T08:45:41;7.32;;;4.82;;
8819;SDS011;4446;50.876;4.736;2023-10-13T08:48:23;8.27;;;4.88;;
8819;SDS011;4446;50.876;4.736;2023-10-13T08:50:58;7.70;;;4.55;;
8819;SDS011;4446;50.876;4.736;2023-10-13T08:53:56;10.95;;;5.22;;
8819;SDS011;4446;50.876;4.736;2023-10-13T08:56:33;9.05;;;4.85;;
8819;SDS011;4446;50.876;4.736;2023-10-13T08:59:07;12.35;;;4.93;;
8819;SDS011;4446;50.876;4.736;2023-10-13T09:01:38;7.53;;;4.63;;
8819;SDS011;4446;50.876;4.736;2023-10-13T09:04:11;8.45;;;4.35;;
8819;SDS011;4446;50.876;4.736;2023-10-13T09:06:47;9.23;;;4.78;;
8819;SDS011;4446;50.876;4.736;2023-10-13T09:09:46;7.20;;;4.70;;
8819;SDS011;4446;50.876;4.736;2023-10-13T09:12:36;7.38;;;5.10;;
8819;SDS011;4446;50.876;4.736;2023-10-13T09:15:05;8.98;;;5.22;;
8819;SDS011;4446;50.876;4.736;2023-10-13T09:17:45;8.93;;;4.63;;
8819;SDS011;4446;50.876;4.736;2023-10-13T09:20:27;7.75;;;4.82;;
8819;SDS011;4446;50.876;4.736;2023-10-13T09:23:08;7.88;;;5.03;;
8819;SDS011;4446;50.876;4.736;2023-10-13T09:25:35;5.93;;;4.50;;
8819;SDS011;4446;50.876;4.736;2023-10-13T09:28:03;12.20;;;5.18;;
8819;SDS011;4446;50.876;4.736;2023-10-13T09:30:43;9.40;;;4.90;;
8819;SDS011;4446;50.876;4.736;2023-10-13T09:33:12;12.80;;;5.03;;
8819;SDS011;4446;50.876;4.736;2023-10-13T09:35:41;8.13;;;5.00;;
8819;SDS011;4446;50.876;4.736;2023-10-13T09:38:14;11.20;;;5.28;;
8819;SDS011;4446;50.876;4.736;2023-10-13T09:40:41;6.53;;;4.60;;
8819;SDS011;4446;50.876;4.736;2023-10-13T09:43:16;11.52;;;4.97;;
8819;SDS011;4446;50.876;4.736;2023-10-13T09:45:43;7.75;;;4.68;;
8819;SDS011;4446;50.876;4.736;2023-10-13T09:48:31;9.20;;;4.82;;
8819;SDS011;4446;50.876;4.736;2023-10-13T09:50:59;7.25;;;5.18;;
8819;SDS011;4446;50.876;4.736;2023-10-13T09:53:28;9.27;;;4.50;;
8819;SDS011;4446;50.876;4.736;2023-10-13T09:55:58;5.60;;;4.60;;
8819;SDS011;4446;50.876;4.736;2023-10-13T09:58:37;7.95;;;5.22;;
8819;SDS011;4446;50.876;4.736;2023-10-13T10:01:12;8.93;;;4.75;;
8819;SDS011;4446;50.876;4.736;2023-10-13T10:03:48;7.95;;;4.50;;
8819;SDS011;4446;50.876;4.736;2023-10-13T10:06:21;6.55;;;4.72;;
8819;SDS011;4446;50.876;4.736;2023-10-13T10:09:03;7.05;;;5.00;;
8819;SDS011;4446;50.876;4.736;2023-10-13T10:14:28;11.90;;;5.03;;
8819;SDS011;4446;50.876;4.736;2023-10-13T10:17:12;9.18;;;5.00;;
8819;SDS011;4446;50.876;4.736;2023-10-13T10:19:47;8.13;;;5.20;;
8819;SDS011;4446;50.876;4.736;2023-10-13T10:22:24;7.22;;;4.57;;
8819;SDS011;4446;50.876;4.736;2023-10-13T10:24:56;6.32;;;4.50;;
8819;SDS011;4446;50.876;4.736;2023-10-13T10:27:24;9.90;;;5.15;;
8819;SDS011;4446;50.876;4.736;2023-10-13T10:29:54;9.90;;;4.78;;
8819;SDS011;4446;50.876;4.736;2023-10-13T10:32:31;10.93;;;4.97;;
8819;SDS011;4446;50.876;4.736;2023-10-13T10:35:07;7.82;;;4.75;;
8819;SDS011;4446;50.876;4.736;2023-10-13T10:37:40;7.03;;;4.50;;
8819;SDS011;4446;50.876;4.736;2023-10-13T10:40:12;7.97;;;4.32;;
8819;SDS011;4446;50.876;4.736;2023-10-13T10:42:59;8.20;;;5.22;;
8819;SDS011;4446;50.876;4.736;2023-10-13T10:45:32;10.43;;;4.68;;
8819;SDS011;4446;50.876;4.736;2023-10-13T10:47:59;9.85;;;4.88;;
8819;SDS011;4446;50.876;4.736;2023-10-13T10:50:43;10.15;;;4.68;;
8819;SDS011;4446;50.876;4.736;2023-10-13T10:53:12;10.13;;;4.65;;
8819;SDS011;4446;50.876;4.736;2023-10-13T10:55:39;6.95;;;4.68;;
8819;SDS011;4446;50.876;4.736;2023-10-13T10:58:06;7.43;;;4.32;;
8819;SDS011;4446;50.876;4.736;2023-10-13T11:01:03;11.77;;;4.88;;
8819;SDS011;4446;50.876;4.736;2023-10-13T11:03:35;10.02;;;4.80;;
8819;SDS011;4446;50.876;4.736;2023-10-13T11:06:09;11.02;;;4.38;;
8819;SDS011;4446;50.876;4.736;2023-10-13T11:08:42;9.52;;;4.63;;
8819;SDS011;4446;50.876;4.736;2023-10-13T11:11:17;10.05;;;4.97;;
8819;SDS011;4446;50.876;4.736;2023-10-13T11:13:55;14.77;;;5.30;;
8819;SDS011;4446;50.876;4.736;2023-10-13T11:16:44;7.50;;;4.68;;
8819;SDS011;4446;50.876;4.736;2023-10-13T11:19:16;11.15;;;4.75;;
8819;SDS011;4446;50.876;4.736;2023-10-13T11:21:52;8.98;;;5.05;;
8819;SDS011;4446;50.876;4.736;2023-10-13T11:24:21;9.70;;;4.72;;
8819;SDS011;4446;50.876;4.736;2023-10-13T11:26:49;9.52;;;4.55;;
8819;SDS011;4446;50.876;4.736;2023-10-13T11:29:17;12.18;;;4.65;;
8819;SDS011;4446;50.876;4.736;2023-10-13T11:31:49;9.45;;;4.60;;
8819;SDS011;4446;50.876;4.736;2023-10-13T11:34:22;8.25;;;4.88;;
8819;SDS011;4446;50.876;4.736;2023-10-13T11:36:51;12.95;;;5.68;;
8819;SDS011;4446;50.876;4.736;2023-10-13T11:39:18;8.32;;;4.47;;
8819;SDS011;4446;50.876;4.736;2023-10-13T11:41:49;12.63;;;5.03;;
8819;SDS011;4446;50.876;4.736;2023-10-13T11:44:19;10.30;;;4.85;;
8819;SDS011;4446;50.876;4.736;2023-10-13T11:46:50;10.32;;;4.95;;
8819;SDS011;4446;50.876;4.736;2023-10-13T11:49:42;10.60;;;5.90;;
8819;SDS011;4446;50.876;4.736;2023-10-13T11:52:09;8.50;;;5.45;;
8819;SDS011;4446;50.876;4.736;2023-10-13T11:54:42;10.95;;;4.70;;
8819;SDS011;4446;50.876;4.736;2023-10-13T11:57:09;8.45;;;5.00;;
8819;SDS011;4446;50.876;4.736;2023-10-13T11:59:36;12.75;;;4.80;;
8819;SDS011;4446;50.876;4.736;2023-10-13T12:02:12;7.95;;;4.80;;
8819;SDS011;4446;50.876;4.736;2023-10-13T12:04:57;7.20;;;5.20;;
8819;SDS011;4446;50.876;4.736;2023-10-13T12:07:26;11.60;;;6.20;;
8819;SDS011;4446;50.876;4.736;2023-10-13T12:10:10;11.98;;;5.20;;
8819;SDS011;4446;50.876;4.736;2023-10-13T12:12:42;7.22;;;4.72;;
8819;SDS011;4446;50.876;4.736;2023-10-13T12:15:11;8.45;;;5.10;;
8819;SDS011;4446;50.876;4.736;2023-10-13T12:17:50;9.32;;;5.20;;
8819;SDS011;4446;50.876;4.736;2023-10-13T12:20:17;9.70;;;4.80;;
8819;SDS011;4446;50.876;4.736;2023-10-13T12:22:59;8.07;;;4.65;;
8819;SDS011;4446;50.876;4.736;2023-10-13T12:25:36;8.32;;;4.85;;
8819;SDS011;4446;50.876;4.736;2023-10-13T12:28:18;11.57;;;5.28;;
8819;SDS011;4446;50.876;4.736;2023-10-13T12:30:46;7.65;;;4.43;;
8819;SDS011;4446;50.876;4.736;2023-10-13T12:33:17;11.85;;;5.38;;
8819;SDS011;4446;50.876;4.736;2023-10-13T12:35:55;14.30;;;4.97;;
8819;SDS011;4446;50.876;4.736;2023-10-13T12:38:41;11.75;;;4.65;;
8819;SDS011;4446;50.876;4.736;2023-10-13T12:41:37;9.82;;;4.90;;
8819;SDS011;4446;50.876;4.736;2023-10-13T12:44:22;8.93;;;4.90;;
8819;SDS011;4446;50.876;4.736;2023-10-13T12:47:09;7.20;;;4.47;;
8819;SDS011;4446;50.876;4.736;2023-10-13T12:49:53;8.15;;;4.85;;
8819;SDS011;4446;50.876;4.736;2023-10-13T12:52:32;7.90;;;4.45;;
8819;SDS011;4446;50.876;4.736;2023-10-13T12:55:02;6.85;;;4.85;;
8819;SDS011;4446;50.876;4.736;2023-10-13T12:57:35;8.35;;;4.72;;
8819;SDS011;4446;50.876;4.736;2023-10-13T13:00:09;9.07;;;5.15;;
8819;SDS011;4446;50.876;4.736;2023-10-13T13:02:48;6.55;;;4.55;;
8819;SDS011;4446;50.876;4.736;2023-10-13T13:05:17;8.80;;;4.50;;
8819;SDS011;4446;50.876;4.736;2023-10-13T13:07:48;8.60;;;4.50;;
8819;SDS011;4446;50.876;4.736;2023-10-13T13:10:19;5.68;;;4.15;;
8819;SDS011;4446;50.876;4.736;2023-10-13T13:12:54;6.95;;;4.65;;
8819;SDS011;4446;50.876;4.736;2023-10-13T13:15:21;6.70;;;4.22;;
8819;SDS011;4446;50.876;4.736;2023-10-13T13:17:48;9.25;;;4.63;;
8819;SDS011;4446;50.876;4.736;2023-10-13T13:20:16;8.80;;;4.47;;
8819;SDS011;4446;50.876;4.736;2023-10-13T13:22:53;10.27;;;4.50;;
8819;SDS011;4446;50.876;4.736;2023-10-13T13:25:22;9.50;;;4.43;;
8819;SDS011;4446;50.876;4.736;2023-10-13T13:27:55;9.45;;;4.28;;
8819;SDS011;4446;50.876;4.736;2023-10-13T13:30:24;7.45;;;4.43;;
8819;SDS011;4446;50.876;4.736;2023-10-13T13:32:55;9.73;;;4.90;;
8819;SDS011;4446;50.876;4.736;2023-10-13T13:35:23;6.45;;;4.18;;
8819;SDS011;4446;50.876;4.736;2023-10-13T13:37:58;5.97;;;3.72;;
8819;SDS011;4446;50.876;4.736;2023-10-13T13:40:36;5.40;;;4.05;;
8819;SDS011;4446;50.876;4.736;2023-10-13T13:43:03;6.32;;;4.18;;
8819;SDS011;4446;50.876;4.736;2023-10-13T13:45:31;10.88;;;5.03;;
8819;SDS011;4446;50.876;4.736;2023-10-13T13:48:00;6.05;;;4.80;;
8819;SDS011;4446;50.876;4.736;2023-10-13T13:50:33;8.20;;;4.55;;
8819;SDS011;4446;50.876;4.736;2023-10-13T13:53:06;8.02;;;4.35;;
8819;SDS011;4446;50.876;4.736;2023-10-13T13:55:36;7.60;;;4.10;;
8819;SDS011;4446;50.876;4.736;2023-10-13T13:58:05;7.38;;;4.57;;
8819;SDS011;4446;50.876;4.736;2023-10-13T14:00:34;8.27;;;4.63;;
8819;SDS011;4446;50.876;4.736;2023-10-13T14:03:03;7.55;;;4.45;;
8819;SDS011;4446;50.876;4.736;2023-10-13T14:05:40;7.80;;;4.28;;
8819;SDS011;4446;50.876;4.736;2023-10-13T14:08:07;7.85;;;4.10;;
8819;SDS011;4446;50.876;4.736;2023-10-13T14:10:38;6.95;;;4.40;;
8819;SDS011;4446;50.876;4.736;2023-10-13T14:13:19;9.98;;;4.50;;
8819;SDS011;4446;50.876;4.736;2023-10-13T14:15:50;7.28;;;4.65;;
8819;SDS011;4446;50.876;4.736;2023-10-13T14:18:21;7.95;;;4.45;;
8819;SDS011;4446;50.876;4.736;2023-10-13T14:20:55;7.30;;;4.38;;
8819;SDS011;4446;50.876;4.736;2023-10-13T14:23:27;7.55;;;4.47;;
8819;SDS011;4446;50.876;4.736;2023-10-13T14:25:56;6.68;;;4.85;;
8819;SDS011;4446;50.876;4.736;2023-10-13T14:28:23;10.10;;;4.72;;
8819;SDS011;4446;50.876;4.736;2023-10-13T14:31:03;7.18;;;4.57;;
8819;SDS011;4446;50.876;4.736;2023-10-13T14:33:35;7.95;;;4.60;;
8819;SDS011;4446;50.876;4.736;2023-10-13T14:36:04;8.05;;;4.22;;
8819;SDS011;4446;50.876;4.736;2023-10-13T14:38:31;8.57;;;4.30;;
8819;SDS011;4446;50.876;4.736;2023-10-13T14:41:00;11.35;;;4.20;;
8819;SDS011;4446;50.876;4.736;2023-10-13T14:43:27;7.97;;;4.13;;
8819;SDS011;4446;50.876;4.736;2023-10-13T14:45:54;9.10;;;4.22;;
8819;SDS011;4446;50.876;4.736;2023-10-13T14:48:21;8.80;;;4.90;;
8819;SDS011;4446;50.876;4.736;2023-10-13T14:50:50;6.68;;;4.15;;
8819;SDS011;4446;50.876;4.736;2023-10-13T14:53:17;5.55;;;4.38;;
8819;SDS011;4446;50.876;4.736;2023-10-13T14:55:47;6.95;;;4.40;;
8819;SDS011;4446;50.876;4.736;2023-10-13T14:58:18;5.85;;;4.45;;
8819;SDS011;4446;50.876;4.736;2023-10-13T15:00:45;8.07;;;4.38;;
8819;SDS011;4446;50.876;4.736;2023-10-13T15:03:12;9.60;;;4.10;;
8819;SDS011;4446;50.876;4.736;2023-10-13T15:05:39;8.93;;;4.40;;
8819;SDS011;4446;50.876;4.736;2023-10-13T15:08:08;8.32;;;4.20;;
8819;SDS011;4446;50.876;4.736;2023-10-13T15:10:35;6.95;;;4.07;;
8819;SDS011;4446;50.876;4.736;2023-10-13T15:13:02;8.15;;;4.20;;
8819;SDS011;4446;50.876;4.736;2023-10-13T15:15:31;7.85;;;4.18;;
8819;SDS011;4446;50.876;4.736;2023-10-13T15:18:01;6.80;;;4.10;;
8819;SDS011;4446;50.876;4.736;2023-10-13T15:20:28;7.72;;;4.30;;
8819;SDS011;4446;50.876;4.736;2023-10-13T15:22:55;5.93;;;4.30;;
8819;SDS011;4446;50.876;4.736;2023-10-13T15:25:25;6.22;;;4.47;;
8819;SDS011;4446;50.876;4.736;2023-10-13T15:27:59;8.45;;;4.85;;
8819;SDS011;4446;50.876;4.736;2023-10-13T15:30:28;9.35;;;4.50;;
8819;SDS011;4446;50.876;4.736;2023-10-13T15:33:10;6.47;;;4.70;;
8819;SDS011;4446;50.876;4.736;2023-10-13T15:35:38;8.43;;;4.40;;
8819;SDS011;4446;50.876;4.736;2023-10-13T15:38:08;7.22;;;4.60;;
8819;SDS011;4446;50.876;4.736;2023-10-13T15:40:40;9.27;;;4.75;;
8819;SDS011;4446;50.876;4.736;2023-10-13T15:43:08;6.30;;;4.38;;
8819;SDS011;4446;50.876;4.736;2023-10-13T15:45:36;7.40;;;4.50;;
8819;SDS011;4446;50.876;4.736;2023-10-13T15:48:07;7.90;;;4.65;;
8819;SDS011;4446;50.876;4.736;2023-10-13T15:50:38;9.00;;;6.38;;
8819;SDS011;4446;50.876;4.736;2023-10-13T15:53:06;6.15;;;4.63;;
8819;SDS011;4446;50.876;4.736;2023-10-13T15:55:37;6.15;;;4.20;;
8819;SDS011;4446;50.876;4.736;2023-10-13T15:58:05;7.60;;;4.28;;